sensor_id;sensor_type;location;lat;lon;timestamp;temperature;humidity
16838;DHT22;19510;54.486;9.046;2024-01-30T00:01:54;8.70;99.90
16838;DHT22;19510;54.486;9.046;2024-01-30T00:04:20;8.70;99.90
16838;DHT22;19510;54.486;9.046;2024-01-30T00:06:45;8.70;99.90
16838;DHT22;19510;54.486;9.046;2024-01-30T00:09:14;8.70;99.90
16838;DHT22;19510;54.486;9.046;2024-01-30T00:11:40;8.70;99.90
16838;DHT22;19510;54.486;9.046;2024-01-30T00:14:06;8.60;99.90
16838;DHT22;19510;54.486;9.046;2024-01-30T00:16:34;8.70;99.90
16838;DHT22;19510;54.486;9.046;2024-01-30T00:19:00;8.70;99.90
16838;DHT22;19510;54.486;9.046;2024-01-30T00:21:27;8.70;99.90
16838;DHT22;19510;54.486;9.046;2024-01-30T00:23:53;8.70;99.90
16838;DHT22;19510;54.486;9.046;2024-01-30T00:26:21;8.70;99.90
16838;DHT22;19510;54.486;9.046;2024-01-30T00:28:49;8.70;99.90
16838;DHT22;19510;54.486;9.046;2024-01-30T00:31:14;8.70;99.90
16838;DHT22;19510;54.486;9.046;2024-01-30T00:33:40;8.70;99.90
16838;DHT22;19510;54.486;9.046;2024-01-30T00:36:07;8.80;99.90
16838;DHT22;19510;54.486;9.046;2024-01-30T00:38:33;8.80;99.90
16838;DHT22;19510;54.486;9.046;2024-01-30T00:40:58;8.80;99.90
16838;DHT22;19510;54.486;9.046;2024-01-30T00:43:24;8.80;99.90
16838;DHT22;19510;54.486;9.046;2024-01-30T00:45:51;8.80;99.90
16838;DHT22;19510;54.486;9.046;2024-01-30T00:48:18;8.80;99.90
16838;DHT22;19510;54.486;9.046;2024-01-30T00:50:44;8.80;99.90
16838;DHT22;19510;54.486;9.046;2024-01-30T00:53:09;8.80;99.90
16838;DHT22;19510;54.486;9.046;2024-01-30T00:55:35;8.80;99.90
16838;DHT22;19510;54.486;9.046;2024-01-30T00:58:01;8.80;99.90
16838;DHT22;19510;54.486;9.046;2024-01-30T01:00:27;8.80;99.90
16838;DHT22;19510;54.486;9.046;2024-01-30T01:02:55;8.90;99.90
16838;DHT22;19510;54.486;9.046;2024-01-30T01:05:21;8.90;99.90
16838;DHT22;19510;54.486;9.046;2024-01-30T01:07:46;8.80;99.90
16838;DHT22;19510;54.486;9.046;2024-01-30T01:10:17;8.80;99.90
16838;DHT22;19510;54.486;9.046;2024-01-30T01:12:44;8.90;99.90
16838;DHT22;19510;54.486;9.046;2024-01-30T01:15:12;8.90;99.90
16838;DHT22;19510;54.486;9.046;2024-01-30T01:17:38;8.80;99.90
16838;DHT22;19510;54.486;9.046;2024-01-30T01:20:04;8.80;99.90
16838;DHT22;19510;54.486;9.046;2024-01-30T01:22:34;8.80;99.90
16838;DHT22;19510;54.486;9.046;2024-01-30T01:25:00;8.80;99.90
16838;DHT22;19510;54.486;9.046;2024-01-30T01:27:26;8.80;99.90
16838;DHT22;19510;54.486;9.046;2024-01-30T01:29:52;8.80;99.90
16838;DHT22;19510;54.486;9.046;2024-01-30T01:32:18;8.80;99.90
16838;DHT22;19510;54.486;9.046;2024-01-30T01:34:44;8.80;99.90
16838;DHT22;19510;54.486;9.046;2024-01-30T01:37:10;8.90;99.90
16838;DHT22;19510;54.486;9.046;2024-01-30T01:39:38;8.90;99.90
16838;DHT22;19510;54.486;9.046;2024-01-30T01:42:06;8.80;99.90
16838;DHT22;19510;54.486;9.046;2024-01-30T01:44:32;8.80;99.90
16838;DHT22;19510;54.486;9.046;2024-01-30T01:46:57;8.80;99.90
16838;DHT22;19510;54.486;9.046;2024-01-30T01:49:25;8.70;99.90
16838;DHT22;19510;54.486;9.046;2024-01-30T01:51:54;8.70;99.90
16838;DHT22;19510;54.486;9.046;2024-01-30T01:54:23;8.70;99.90
16838;DHT22;19510;54.486;9.046;2024-01-30T01:56:50;8.60;99.90
16838;DHT22;19510;54.486;9.046;2024-01-30T01:59:17;8.60;99.90
16838;DHT22;19510;54.486;9.046;2024-01-30T02:01:46;8.60;99.90
16838;DHT22;19510;54.486;9.046;2024-01-30T02:04:15;8.50;99.90
16838;DHT22;19510;54.486;9.046;2024-01-30T02:06:41;8.50;99.90
16838;DHT22;19510;54.486;9.046;2024-01-30T02:09:07;8.50;99.90
16838;DHT22;19510;54.486;9.046;2024-01-30T02:11:36;8.40;99.90
16838;DHT22;19510;54.486;9.046;2024-01-30T02:14:03;8.30;99.90
16838;DHT22;19510;54.486;9.046;2024-01-30T02:16:32;8.30;99.90
16838;DHT22;19510;54.486;9.046;2024-01-30T02:18:57;8.20;99.90
16838;DHT22;19510;54.486;9.046;2024-01-30T02:21:23;8.10;99.90
16838;DHT22;19510;54.486;9.046;2024-01-30T02:23:49;8.20;99.90
16838;DHT22;19510;54.486;9.046;2024-01-30T02:26:16;8.20;99.90
16838;DHT22;19510;54.486;9.046;2024-01-30T02:28:42;8.10;99.90
16838;DHT22;19510;54.486;9.046;2024-01-30T02:31:07;8.10;99.90
16838;DHT22;19510;54.486;9.046;2024-01-30T02:33:33;8.10;99.90
16838;DHT22;19510;54.486;9.046;2024-01-30T02:35:59;8.10;99.90
16838;DHT22;19510;54.486;9.046;2024-01-30T02:38:25;8.00;99.90
16838;DHT22;19510;54.486;9.046;2024-01-30T02:40:52;8.00;99.90
16838;DHT22;19510;54.486;9.046;2024-01-30T02:43:18;8.00;99.90
16838;DHT22;19510;54.486;9.046;2024-01-30T02:45:43;8.00;99.90
16838;DHT22;19510;54.486;9.046;2024-01-30T02:48:11;8.00;99.90
16838;DHT22;19510;54.486;9.046;2024-01-30T02:50:37;7.90;99.90
16838;DHT22;19510;54.486;9.046;2024-01-30T02:53:02;7.90;99.90
16838;DHT22;19510;54.486;9.046;2024-01-30T02:55:28;7.90;99.90
16838;DHT22;19510;54.486;9.046;2024-01-30T02:57:54;7.90;99.90
16838;DHT22;19510;54.486;9.046;2024-01-30T03:00:20;7.80;99.90
16838;DHT22;19510;54.486;9.046;2024-01-30T03:02:46;7.80;99.90
16838;DHT22;19510;54.486;9.046;2024-01-30T03:05:11;7.80;99.90
16838;DHT22;19510;54.486;9.046;2024-01-30T03:07:39;7.80;99.90
16838;DHT22;19510;54.486;9.046;2024-01-30T03:10:05;7.80;99.90
16838;DHT22;19510;54.486;9.046;2024-01-30T03:12:31;7.70;99.90
16838;DHT22;19510;54.486;9.046;2024-01-30T03:14:57;7.70;99.90
16838;DHT22;19510;54.486;9.046;2024-01-30T03:17:23;7.70;99.90
16838;DHT22;19510;54.486;9.046;2024-01-30T03:19:50;7.60;99.90
16838;DHT22;19510;54.486;9.046;2024-01-30T03:22:15;7.70;99.90
16838;DHT22;19510;54.486;9.046;2024-01-30T03:24:41;7.70;99.90
16838;DHT22;19510;54.486;9.046;2024-01-30T03:27:09;7.60;99.90
16838;DHT22;19510;54.486;9.046;2024-01-30T03:29:35;7.60;99.90
16838;DHT22;19510;54.486;9.046;2024-01-30T03:32:03;7.60;99.90
16838;DHT22;19510;54.486;9.046;2024-01-30T03:34:29;7.60;99.90
16838;DHT22;19510;54.486;9.046;2024-01-30T03:36:55;7.60;99.90
16838;DHT22;19510;54.486;9.046;2024-01-30T03:39:21;7.60;99.90
16838;DHT22;19510;54.486;9.046;2024-01-30T03:41:47;7.60;99.90
16838;DHT22;19510;54.486;9.046;2024-01-30T03:44:12;7.60;99.90
16838;DHT22;19510;54.486;9.046;2024-01-30T03:46:38;7.60;99.90
16838;DHT22;19510;54.486;9.046;2024-01-30T03:49:04;7.50;99.90
16838;DHT22;19510;54.486;9.046;2024-01-30T03:51:29;7.50;99.90
16838;DHT22;19510;54.486;9.046;2024-01-30T03:53:55;7.50;99.90
16838;DHT22;19510;54.486;9.046;2024-01-30T03:56:21;7.50;99.90
16838;DHT22;19510;54.486;9.046;2024-01-30T03:58:47;7.50;99.90
16838;DHT22;19510;54.486;9.046;2024-01-30T04:01:15;7.50;99.90
16838;DHT22;19510;54.486;9.046;2024-01-30T04:03:41;7.50;99.90
16838;DHT22;19510;54.486;9.046;2024-01-30T04:06:08;7.50;99.90
16838;DHT22;19510;54.486;9.046;2024-01-30T04:08:34;7.40;99.90
16838;DHT22;19510;54.486;9.046;2024-01-30T04:11:04;7.40;99.90
16838;DHT22;19510;54.486;9.046;2024-01-30T04:13:32;7.40;99.90
16838;DHT22;19510;54.486;9.046;2024-01-30T04:16:02;7.40;99.90
16838;DHT22;19510;54.486;9.046;2024-01-30T04:18:28;7.40;99.90
16838;DHT22;19510;54.486;9.046;2024-01-30T04:20:54;7.30;99.90
16838;DHT22;19510;54.486;9.046;2024-01-30T04:23:20;7.40;99.90
16838;DHT22;19510;54.486;9.046;2024-01-30T04:25:46;7.40;99.90
16838;DHT22;19510;54.486;9.046;2024-01-30T04:28:12;7.40;99.90
16838;DHT22;19510;54.486;9.046;2024-01-30T04:30:38;7.20;99.90
16838;DHT22;19510;54.486;9.046;2024-01-30T04:33:06;7.30;99.90
16838;DHT22;19510;54.486;9.046;2024-01-30T04:35:33;7.30;99.90
16838;DHT22;19510;54.486;9.046;2024-01-30T04:37:59;7.30;99.90
16838;DHT22;19510;54.486;9.046;2024-01-30T04:40:27;7.30;99.90
16838;DHT22;19510;54.486;9.046;2024-01-30T04:42:52;7.20;99.90
16838;DHT22;19510;54.486;9.046;2024-01-30T04:45:18;7.20;99.90
16838;DHT22;19510;54.486;9.046;2024-01-30T04:47:44;7.20;99.90
16838;DHT22;19510;54.486;9.046;2024-01-30T04:50:09;7.20;99.90
16838;DHT22;19510;54.486;9.046;2024-01-30T04:52:35;7.20;99.90
16838;DHT22;19510;54.486;9.046;2024-01-30T04:55:01;7.20;99.90
16838;DHT22;19510;54.486;9.046;2024-01-30T04:57:27;7.20;99.90
16838;DHT22;19510;54.486;9.046;2024-01-30T04:59:55;7.20;99.90
16838;DHT22;19510;54.486;9.046;2024-01-30T05:02:21;7.20;99.90
16838;DHT22;19510;54.486;9.046;2024-01-30T05:04:47;7.10;99.90
16838;DHT22;19510;54.486;9.046;2024-01-30T05:07:13;7.10;99.90
16838;DHT22;19510;54.486;9.046;2024-01-30T05:09:40;7.10;99.90
16838;DHT22;19510;54.486;9.046;2024-01-30T05:12:10;7.00;99.90
16838;DHT22;19510;54.486;9.046;2024-01-30T05:14:38;7.00;99.90
16838;DHT22;19510;54.486;9.046;2024-01-30T05:17:06;7.00;99.90
16838;DHT22;19510;54.486;9.046;2024-01-30T05:19:34;7.00;99.90
16838;DHT22;19510;54.486;9.046;2024-01-30T05:22:00;6.90;99.90
16838;DHT22;19510;54.486;9.046;2024-01-30T05:24:26;6.90;99.90
16838;DHT22;19510;54.486;9.046;2024-01-30T05:26:51;7.00;99.90
16838;DHT22;19510;54.486;9.046;2024-01-30T05:29:19;7.00;99.90
16838;DHT22;19510;54.486;9.046;2024-01-30T05:31:45;6.90;99.90
16838;DHT22;19510;54.486;9.046;2024-01-30T05:34:12;6.90;99.90
16838;DHT22;19510;54.486;9.046;2024-01-30T05:36:38;6.90;99.90
16838;DHT22;19510;54.486;9.046;2024-01-30T05:39:03;6.90;99.90
16838;DHT22;19510;54.486;9.046;2024-01-30T05:41:29;6.90;99.90
16838;DHT22;19510;54.486;9.046;2024-01-30T05:43:55;7.00;99.90
16838;DHT22;19510;54.486;9.046;2024-01-30T05:46:21;6.90;99.90
16838;DHT22;19510;54.486;9.046;2024-01-30T05:48:49;6.90;99.90
16838;DHT22;19510;54.486;9.046;2024-01-30T05:51:15;6.90;99.90
16838;DHT22;19510;54.486;9.046;2024-01-30T05:53:43;6.90;99.90
16838;DHT22;19510;54.486;9.046;2024-01-30T05:56:08;6.80;99.90
16838;DHT22;19510;54.486;9.046;2024-01-30T05:58:34;6.90;99.90
16838;DHT22;19510;54.486;9.046;2024-01-30T06:01:00;6.90;99.90
16838;DHT22;19510;54.486;9.046;2024-01-30T06:03:25;6.90;99.90
16838;DHT22;19510;54.486;9.046;2024-01-30T06:05:51;6.90;99.90
16838;DHT22;19510;54.486;9.046;2024-01-30T06:08:17;6.90;99.90
16838;DHT22;19510;54.486;9.046;2024-01-30T06:10:43;6.90;99.90
16838;DHT22;19510;54.486;9.046;2024-01-30T06:13:13;6.80;99.90
16838;DHT22;19510;54.486;9.046;2024-01-30T06:15:39;6.80;99.90
16838;DHT22;19510;54.486;9.046;2024-01-30T06:18:05;6.80;99.90
16838;DHT22;19510;54.486;9.046;2024-01-30T06:20:30;6.80;99.90
16838;DHT22;19510;54.486;9.046;2024-01-30T06:22:56;6.80;99.90
16838;DHT22;19510;54.486;9.046;2024-01-30T06:25:22;6.70;99.90
16838;DHT22;19510;54.486;9.046;2024-01-30T06:27:48;6.70;99.90
16838;DHT22;19510;54.486;9.046;2024-01-30T06:30:14;6.60;99.90
16838;DHT22;19510;54.486;9.046;2024-01-30T06:32:42;6.60;99.90
16838;DHT22;19510;54.486;9.046;2024-01-30T06:35:08;6.60;99.90
16838;DHT22;19510;54.486;9.046;2024-01-30T06:37:34;6.60;99.90
16838;DHT22;19510;54.486;9.046;2024-01-30T06:40:04;6.50;99.90
16838;DHT22;19510;54.486;9.046;2024-01-30T06:42:31;6.50;99.90
16838;DHT22;19510;54.486;9.046;2024-01-30T06:44:56;6.60;99.90
16838;DHT22;19510;54.486;9.046;2024-01-30T06:47:25;6.50;99.90
16838;DHT22;19510;54.486;9.046;2024-01-30T06:49:51;6.60;99.90
16838;DHT22;19510;54.486;9.046;2024-01-30T06:52:16;6.60;99.90
16838;DHT22;19510;54.486;9.046;2024-01-30T06:54:42;6.60;99.90
16838;DHT22;19510;54.486;9.046;2024-01-30T06:57:08;6.50;99.90
16838;DHT22;19510;54.486;9.046;2024-01-30T06:59:37;6.50;99.90
16838;DHT22;19510;54.486;9.046;2024-01-30T07:02:07;6.50;99.90
16838;DHT22;19510;54.486;9.046;2024-01-30T07:04:33;6.50;99.90
16838;DHT22;19510;54.486;9.046;2024-01-30T07:07:01;6.50;99.90
16838;DHT22;19510;54.486;9.046;2024-01-30T07:09:28;6.50;99.90
16838;DHT22;19510;54.486;9.046;2024-01-30T07:11:54;6.50;99.90
16838;DHT22;19510;54.486;9.046;2024-01-30T07:14:24;6.50;99.90
16838;DHT22;19510;54.486;9.046;2024-01-30T07:16:52;6.50;99.90
16838;DHT22;19510;54.486;9.046;2024-01-30T07:19:22;6.50;99.90
16838;DHT22;19510;54.486;9.046;2024-01-30T07:21:50;6.60;99.90
16838;DHT22;19510;54.486;9.046;2024-01-30T07:24:16;6.50;99.90
16838;DHT22;19510;54.486;9.046;2024-01-30T07:26:41;6.60;99.90
16838;DHT22;19510;54.486;9.046;2024-01-30T07:29:07;6.60;99.90
16838;DHT22;19510;54.486;9.046;2024-01-30T07:31:35;6.60;99.90
16838;DHT22;19510;54.486;9.046;2024-01-30T07:34:00;6.60;99.90
16838;DHT22;19510;54.486;9.046;2024-01-30T07:36:28;6.60;99.90
16838;DHT22;19510;54.486;9.046;2024-01-30T07:38:54;6.60;99.90
16838;DHT22;19510;54.486;9.046;2024-01-30T07:41:20;6.60;99.90
16838;DHT22;19510;54.486;9.046;2024-01-30T07:43:48;6.60;99.90
16838;DHT22;19510;54.486;9.046;2024-01-30T07:46:17;6.60;99.90
16838;DHT22;19510;54.486;9.046;2024-01-30T07:48:43;6.60;99.90
16838;DHT22;19510;54.486;9.046;2024-01-30T07:51:16;6.60;99.90
16838;DHT22;19510;54.486;9.046;2024-01-30T07:53:42;6.60;99.90
16838;DHT22;19510;54.486;9.046;2024-01-30T07:56:07;6.60;99.90
16838;DHT22;19510;54.486;9.046;2024-01-30T07:58:35;6.60;99.90
16838;DHT22;19510;54.486;9.046;2024-01-30T08:01:03;6.60;99.90
16838;DHT22;19510;54.486;9.046;2024-01-30T08:03:29;6.60;99.90
16838;DHT22;19510;54.486;9.046;2024-01-30T08:05:54;6.60;99.90
16838;DHT22;19510;54.486;9.046;2024-01-30T08:08:23;6.60;99.90
16838;DHT22;19510;54.486;9.046;2024-01-30T08:10:48;6.70;99.90
16838;DHT22;19510;54.486;9.046;2024-01-30T08:13:17;6.70;99.90
16838;DHT22;19510;54.486;9.046;2024-01-30T08:15:43;6.70;99.90
16838;DHT22;19510;54.486;9.046;2024-01-30T08:18:08;6.70;99.90
16838;DHT22;19510;54.486;9.046;2024-01-30T08:20:39;6.70;99.90
16838;DHT22;19510;54.486;9.046;2024-01-30T08:23:05;6.70;99.90
16838;DHT22;19510;54.486;9.046;2024-01-30T08:25:30;6.70;99.90
16838;DHT22;19510;54.486;9.046;2024-01-30T08:27:58;6.70;99.90
16838;DHT22;19510;54.486;9.046;2024-01-30T08:30:27;6.80;99.90
16838;DHT22;19510;54.486;9.046;2024-01-30T08:32:53;6.80;99.90
16838;DHT22;19510;54.486;9.046;2024-01-30T08:35:21;6.80;99.90
16838;DHT22;19510;54.486;9.046;2024-01-30T08:37:47;6.80;99.90
16838;DHT22;19510;54.486;9.046;2024-01-30T08:40:12;6.80;99.90
16838;DHT22;19510;54.486;9.046;2024-01-30T08:42:40;6.90;99.90
16838;DHT22;19510;54.486;9.046;2024-01-30T08:45:06;6.90;99.90
16838;DHT22;19510;54.486;9.046;2024-01-30T08:47:32;6.90;99.90
16838;DHT22;19510;54.486;9.046;2024-01-30T08:49:58;6.80;99.90
16838;DHT22;19510;54.486;9.046;2024-01-30T08:52:24;6.80;99.90
16838;DHT22;19510;54.486;9.046;2024-01-30T08:54:50;6.80;99.90
16838;DHT22;19510;54.486;9.046;2024-01-30T08:57:16;6.80;99.90
16838;DHT22;19510;54.486;9.046;2024-01-30T08:59:41;6.80;99.90
16838;DHT22;19510;54.486;9.046;2024-01-30T09:02:12;6.80;99.90
16838;DHT22;19510;54.486;9.046;2024-01-30T09:04:39;6.90;99.90
16838;DHT22;19510;54.486;9.046;2024-01-30T09:07:04;6.90;99.90
16838;DHT22;19510;54.486;9.046;2024-01-30T09:09:34;6.90;99.90
16838;DHT22;19510;54.486;9.046;2024-01-30T09:11:59;6.90;99.90
16838;DHT22;19510;54.486;9.046;2024-01-30T09:14:32;7.00;99.90
16838;DHT22;19510;54.486;9.046;2024-01-30T09:16:58;7.00;99.90
16838;DHT22;19510;54.486;9.046;2024-01-30T09:19:23;7.00;99.90
16838;DHT22;19510;54.486;9.046;2024-01-30T09:21:53;7.10;99.90
16838;DHT22;19510;54.486;9.046;2024-01-30T09:24:22;7.10;99.90
16838;DHT22;19510;54.486;9.046;2024-01-30T09:26:47;7.10;99.90
16838;DHT22;19510;54.486;9.046;2024-01-30T09:29:15;7.10;99.90
16838;DHT22;19510;54.486;9.046;2024-01-30T09:31:45;7.20;99.90
16838;DHT22;19510;54.486;9.046;2024-01-30T09:34:13;7.30;99.90
16838;DHT22;19510;54.486;9.046;2024-01-30T09:36:41;7.30;99.90
16838;DHT22;19510;54.486;9.046;2024-01-30T09:39:09;7.30;99.90
16838;DHT22;19510;54.486;9.046;2024-01-30T09:41:48;7.30;99.90
16838;DHT22;19510;54.486;9.046;2024-01-30T09:44:17;7.40;99.90
16838;DHT22;19510;54.486;9.046;2024-01-30T09:46:47;7.40;99.90
16838;DHT22;19510;54.486;9.046;2024-01-30T09:49:15;7.50;99.90
16838;DHT22;19510;54.486;9.046;2024-01-30T09:51:46;7.50;99.90
16838;DHT22;19510;54.486;9.046;2024-01-30T09:54:15;7.50;99.90
16838;DHT22;19510;54.486;9.046;2024-01-30T09:56:42;7.60;99.90
16838;DHT22;19510;54.486;9.046;2024-01-30T09:59:08;7.60;99.90
16838;DHT22;19510;54.486;9.046;2024-01-30T10:01:35;7.60;99.90
16838;DHT22;19510;54.486;9.046;2024-01-30T10:04:01;7.70;99.90
16838;DHT22;19510;54.486;9.046;2024-01-30T10:06:28;7.70;99.90
16838;DHT22;19510;54.486;9.046;2024-01-30T10:08:54;7.80;99.90
16838;DHT22;19510;54.486;9.046;2024-01-30T10:11:19;7.80;99.90
16838;DHT22;19510;54.486;9.046;2024-01-30T10:13:45;7.90;99.90
16838;DHT22;19510;54.486;9.046;2024-01-30T10:16:16;7.90;99.90
16838;DHT22;19510;54.486;9.046;2024-01-30T10:18:44;8.00;99.90
16838;DHT22;19510;54.486;9.046;2024-01-30T10:21:10;8.00;99.90
16838;DHT22;19510;54.486;9.046;2024-01-30T10:23:40;8.10;99.90
16838;DHT22;19510;54.486;9.046;2024-01-30T10:26:09;8.10;99.90
16838;DHT22;19510;54.486;9.046;2024-01-30T10:28:37;8.10;99.90
16838;DHT22;19510;54.486;9.046;2024-01-30T10:31:03;8.20;99.90
16838;DHT22;19510;54.486;9.046;2024-01-30T10:33:39;8.20;99.90
16838;DHT22;19510;54.486;9.046;2024-01-30T10:36:07;8.20;99.90
16838;DHT22;19510;54.486;9.046;2024-01-30T10:38:36;8.30;99.90
16838;DHT22;19510;54.486;9.046;2024-01-30T10:41:03;8.30;99.90
16838;DHT22;19510;54.486;9.046;2024-01-30T10:43:35;8.40;99.90
16838;DHT22;19510;54.486;9.046;2024-01-30T10:46:10;8.50;99.90
16838;DHT22;19510;54.486;9.046;2024-01-30T10:48:42;8.50;99.90
16838;DHT22;19510;54.486;9.046;2024-01-30T10:51:10;8.60;99.90
16838;DHT22;19510;54.486;9.046;2024-01-30T10:53:39;8.60;99.90
16838;DHT22;19510;54.486;9.046;2024-01-30T10:56:05;8.60;99.90
16838;DHT22;19510;54.486;9.046;2024-01-30T10:58:33;8.70;99.90
16838;DHT22;19510;54.486;9.046;2024-01-30T11:01:02;8.70;99.90
16838;DHT22;19510;54.486;9.046;2024-01-30T11:03:32;8.80;99.90
16838;DHT22;19510;54.486;9.046;2024-01-30T11:06:02;8.80;99.90
16838;DHT22;19510;54.486;9.046;2024-01-30T11:08:28;8.90;99.90
16838;DHT22;19510;54.486;9.046;2024-01-30T11:10:58;8.90;99.90
16838;DHT22;19510;54.486;9.046;2024-01-30T11:13:28;8.90;99.90
16838;DHT22;19510;54.486;9.046;2024-01-30T11:15:54;8.90;99.90
16838;DHT22;19510;54.486;9.046;2024-01-30T11:18:26;9.00;99.90
16838;DHT22;19510;54.486;9.046;2024-01-30T11:20:51;8.90;99.90
16838;DHT22;19510;54.486;9.046;2024-01-30T11:23:17;9.00;99.90
16838;DHT22;19510;54.486;9.046;2024-01-30T11:25:44;9.00;99.90
16838;DHT22;19510;54.486;9.046;2024-01-30T11:28:14;9.00;99.90
16838;DHT22;19510;54.486;9.046;2024-01-30T11:30:43;9.00;99.90
16838;DHT22;19510;54.486;9.046;2024-01-30T11:35:38;9.00;99.90
16838;DHT22;19510;54.486;9.046;2024-01-30T11:38:08;9.00;99.90
16838;DHT22;19510;54.486;9.046;2024-01-30T11:40:36;9.10;99.90
16838;DHT22;19510;54.486;9.046;2024-01-30T11:43:04;9.10;99.90
16838;DHT22;19510;54.486;9.046;2024-01-30T11:45:30;9.10;99.90
16838;DHT22;19510;54.486;9.046;2024-01-30T11:47:57;9.10;99.90
16838;DHT22;19510;54.486;9.046;2024-01-30T11:50:24;9.10;99.90
16838;DHT22;19510;54.486;9.046;2024-01-30T11:52:50;9.20;99.90
16838;DHT22;19510;54.486;9.046;2024-01-30T11:55:19;9.10;99.90
16838;DHT22;19510;54.486;9.046;2024-01-30T11:57:45;9.20;99.90
16838;DHT22;19510;54.486;9.046;2024-01-30T12:00:18;9.10;99.90
16838;DHT22;19510;54.486;9.046;2024-01-30T12:02:52;9.10;99.90
16838;DHT22;19510;54.486;9.046;2024-01-30T12:05:24;9.10;99.90
16838;DHT22;19510;54.486;9.046;2024-01-30T12:07:50;9.10;99.90
16838;DHT22;19510;54.486;9.046;2024-01-30T12:10:16;9.10;99.90
16838;DHT22;19510;54.486;9.046;2024-01-30T12:12:47;9.10;99.90
16838;DHT22;19510;54.486;9.046;2024-01-30T12:15:14;9.10;99.90
16838;DHT22;19510;54.486;9.046;2024-01-30T12:17:42;9.10;99.90
16838;DHT22;19510;54.486;9.046;2024-01-30T12:20:12;9.10;99.90
16838;DHT22;19510;54.486;9.046;2024-01-30T12:22:43;9.10;99.90
16838;DHT22;19510;54.486;9.046;2024-01-30T12:25:09;9.10;99.90
16838;DHT22;19510;54.486;9.046;2024-01-30T12:27:39;9.10;99.90
16838;DHT22;19510;54.486;9.046;2024-01-30T12:30:12;9.10;99.90
16838;DHT22;19510;54.486;9.046;2024-01-30T12:32:46;9.10;99.90
16838;DHT22;19510;54.486;9.046;2024-01-30T12:35:14;9.10;99.90
16838;DHT22;19510;54.486;9.046;2024-01-30T12:37:41;9.10;99.90
16838;DHT22;19510;54.486;9.046;2024-01-30T12:40:10;9.10;99.90
16838;DHT22;19510;54.486;9.046;2024-01-30T12:42:37;9.10;99.90
16838;DHT22;19510;54.486;9.046;2024-01-30T12:45:03;9.20;99.90
16838;DHT22;19510;54.486;9.046;2024-01-30T12:47:30;9.20;99.90
16838;DHT22;19510;54.486;9.046;2024-01-30T12:49:56;9.20;99.90
16838;DHT22;19510;54.486;9.046;2024-01-30T12:52:22;9.20;99.90
16838;DHT22;19510;54.486;9.046;2024-01-30T12:54:49;9.20;99.90
16838;DHT22;19510;54.486;9.046;2024-01-30T12:57:18;9.20;99.90
16838;DHT22;19510;54.486;9.046;2024-01-30T12:59:44;9.20;99.90
16838;DHT22;19510;54.486;9.046;2024-01-30T13:02:12;9.30;99.90
16838;DHT22;19510;54.486;9.046;2024-01-30T13:04:40;9.30;99.90
16838;DHT22;19510;54.486;9.046;2024-01-30T13:07:06;9.40;99.90
16838;DHT22;19510;54.486;9.046;2024-01-30T13:09:32;9.40;99.90
16838;DHT22;19510;54.486;9.046;2024-01-30T13:12:00;9.40;99.90
16838;DHT22;19510;54.486;9.046;2024-01-30T13:14:28;9.40;99.90
16838;DHT22;19510;54.486;9.046;2024-01-30T13:16:54;9.40;99.90
16838;DHT22;19510;54.486;9.046;2024-01-30T13:19:20;9.50;99.90
16838;DHT22;19510;54.486;9.046;2024-01-30T13:21:46;9.50;99.90
16838;DHT22;19510;54.486;9.046;2024-01-30T13:24:13;9.50;99.90
16838;DHT22;19510;54.486;9.046;2024-01-30T13:26:39;9.50;99.90
16838;DHT22;19510;54.486;9.046;2024-01-30T13:29:07;9.50;99.90
16838;DHT22;19510;54.486;9.046;2024-01-30T13:31:34;9.60;99.90
16838;DHT22;19510;54.486;9.046;2024-01-30T13:34:00;9.60;99.90
16838;DHT22;19510;54.486;9.046;2024-01-30T13:36:28;9.60;99.90
16838;DHT22;19510;54.486;9.046;2024-01-30T13:38:53;9.60;99.90
16838;DHT22;19510;54.486;9.046;2024-01-30T13:41:21;9.70;99.90
16838;DHT22;19510;54.486;9.046;2024-01-30T13:43:48;9.70;99.90
16838;DHT22;19510;54.486;9.046;2024-01-30T13:46:17;9.70;99.90
16838;DHT22;19510;54.486;9.046;2024-01-30T13:48:42;9.70;99.90
16838;DHT22;19510;54.486;9.046;2024-01-30T13:51:08;9.70;99.90
16838;DHT22;19510;54.486;9.046;2024-01-30T13:53:36;9.60;99.90
16838;DHT22;19510;54.486;9.046;2024-01-30T13:56:04;9.60;99.90
16838;DHT22;19510;54.486;9.046;2024-01-30T13:58:32;9.50;99.90
16838;DHT22;19510;54.486;9.046;2024-01-30T14:00:59;9.50;99.90
16838;DHT22;19510;54.486;9.046;2024-01-30T14:03:27;9.50;99.90
16838;DHT22;19510;54.486;9.046;2024-01-30T14:05:53;9.40;99.90
16838;DHT22;19510;54.486;9.046;2024-01-30T14:08:18;9.40;99.90
16838;DHT22;19510;54.486;9.046;2024-01-30T14:10:47;9.40;99.90
16838;DHT22;19510;54.486;9.046;2024-01-30T14:13:13;9.30;99.90
16838;DHT22;19510;54.486;9.046;2024-01-30T14:15:38;9.30;99.90
16838;DHT22;19510;54.486;9.046;2024-01-30T14:18:05;9.30;99.90
16838;DHT22;19510;54.486;9.046;2024-01-30T14:20:33;9.30;99.90
16838;DHT22;19510;54.486;9.046;2024-01-30T14:22:59;9.30;99.90
16838;DHT22;19510;54.486;9.046;2024-01-30T14:25:27;9.20;99.90
16838;DHT22;19510;54.486;9.046;2024-01-30T14:27:53;9.20;99.90
16838;DHT22;19510;54.486;9.046;2024-01-30T14:30:19;9.20;99.90
16838;DHT22;19510;54.486;9.046;2024-01-30T14:32:46;9.20;99.90
16838;DHT22;19510;54.486;9.046;2024-01-30T14:35:13;9.20;99.90
16838;DHT22;19510;54.486;9.046;2024-01-30T14:37:39;9.20;99.90
16838;DHT22;19510;54.486;9.046;2024-01-30T14:40:05;9.20;99.90
16838;DHT22;19510;54.486;9.046;2024-01-30T14:42:34;9.20;99.90
16838;DHT22;19510;54.486;9.046;2024-01-30T14:45:03;9.20;99.90
16838;DHT22;19510;54.486;9.046;2024-01-30T14:47:29;9.10;99.90
16838;DHT22;19510;54.486;9.046;2024-01-30T14:49:57;9.20;99.90
16838;DHT22;19510;54.486;9.046;2024-01-30T14:52:25;9.20;99.90
16838;DHT22;19510;54.486;9.046;2024-01-30T14:54:53;9.20;99.90
16838;DHT22;19510;54.486;9.046;2024-01-30T14:57:21;9.20;99.90
16838;DHT22;19510;54.486;9.046;2024-01-30T14:59:46;9.20;99.90
16838;DHT22;19510;54.486;9.046;2024-01-30T15:02:14;9.10;99.90
16838;DHT22;19510;54.486;9.046;2024-01-30T15:04:40;9.10;99.90
16838;DHT22;19510;54.486;9.046;2024-01-30T15:07:08;9.10;99.90
16838;DHT22;19510;54.486;9.046;2024-01-30T15:09:36;9.00;99.90
16838;DHT22;19510;54.486;9.046;2024-01-30T15:12:04;9.00;99.90
16838;DHT22;19510;54.486;9.046;2024-01-30T15:14:30;9.00;99.90
16838;DHT22;19510;54.486;9.046;2024-01-30T15:16:55;8.90;99.90
16838;DHT22;19510;54.486;9.046;2024-01-30T15:19:21;8.90;99.90
16838;DHT22;19510;54.486;9.046;2024-01-30T15:21:51;8.80;99.90
16838;DHT22;19510;54.486;9.046;2024-01-30T15:24:17;8.80;99.90
16838;DHT22;19510;54.486;9.046;2024-01-30T15:26:43;8.80;99.90
16838;DHT22;19510;54.486;9.046;2024-01-30T15:29:09;8.80;99.90
16838;DHT22;19510;54.486;9.046;2024-01-30T15:31:39;8.70;99.90
16838;DHT22;19510;54.486;9.046;2024-01-30T15:34:08;8.70;99.90
16838;DHT22;19510;54.486;9.046;2024-01-30T15:36:36;8.70;99.90
16838;DHT22;19510;54.486;9.046;2024-01-30T15:39:06;8.70;99.90
16838;DHT22;19510;54.486;9.046;2024-01-30T15:41:33;8.70;99.90
16838;DHT22;19510;54.486;9.046;2024-01-30T15:43:58;8.70;99.90
16838;DHT22;19510;54.486;9.046;2024-01-30T15:46:29;8.70;99.90